Time;durP1;ratioP1;P1;durP2;ratioP2;P2;SDS_P1;SDS_P2;PMS_P1;PMS_P2;Temp;Humidity;BMP_temperature;BMP_pressure;BME280_temperature;BME280_humidity;BME280_pressure;Samples;Min_cycle;Max_cycle;Signal;HPM_P1;HPM_P2
2022/07/13 04:14:25;;;;;;;;;;;;;;;19.72;100.00;99052.22;5033107;24;19982;-76
2022/07/13 04:16:53;;;;;;;;;;;;;;;19.83;100.00;99047.88;4816715;29;20330;-80
2022/07/13 04:19:21;;;;;;;;;;;;;;;19.91;100.00;99059.84;4829091;29;19955;-75
2022/07/13 04:21:49;;;;;;;;;;;;;;;19.98;100.00;99054.81;4832824;29;19950;-73
2022/07/13 04:24:21;;;;;;;;;;;;;;;20.07;100.00;99062.72;4837429;29;19955;-75
2022/07/13 04:26:49;;;;;;;;;;;;;;;20.25;100.00;99063.09;4830495;29;19956;-74
2022/07/13 04:29:17;;;;;;;;;;;;;;;20.42;100.00;99070.34;4830119;29;20229;-73
2022/07/13 04:31:44;;;;;;;;;;;;;;;20.57;100.00;99068.75;4830549;29;19963;-76
2022/07/13 04:34:12;;;;;;;;;;;;;;;20.66;100.00;99079.50;4827277;29;19952;-74
2022/07/13 04:36:43;;;;;;;;;;;;;;;20.81;100.00;99077.84;4832595;29;19956;-74
2022/07/13 04:39:12;;;;;;;;;;;;;;;20.88;100.00;99078.44;4828147;29;19952;-75
2022/07/13 04:41:39;;;;;;;;;;;;;;;21.13;100.00;99086.31;4831039;29;19963;-74
2022/07/13 04:44:07;;;;;;;;;;;;;;;21.19;100.00;99081.66;4824765;29;20245;-74
2022/07/13 04:46:34;;;;;;;;;;;;;;;21.41;100.00;99082.66;4828472;29;20338;-74
2022/07/13 04:49:02;;;;;;;;;;;;;;;21.60;100.00;99087.34;4822080;29;19968;-75
2022/07/13 04:51:31;;;;;;;;;;;;;;;22.00;100.00;99084.09;4835948;29;19955;-75
2022/07/13 04:53:58;;;;;;;;;;;;;;;22.29;100.00;99086.81;4828062;29;19959;-75
2022/07/13 04:56:27;;;;;;;;;;;;;;;22.78;100.00;99094.50;4834592;29;20278;-75
2022/07/13 04:58:54;;;;;;;;;;;;;;;23.42;100.00;99103.59;4823940;29;19955;-75
2022/07/13 05:01:23;;;;;;;;;;;;;;;23.81;100.00;99102.09;4835101;29;19962;-76
2022/07/13 05:03:57;;;;;;;;;;;;;;;24.64;100.00;99116.25;4843513;29;19950;-75
2022/07/13 05:06:24;;;;;;;;;;;;;;;24.86;100.00;99116.97;4845120;29;19947;-75
2022/07/13 05:08:53;;;;;;;;;;;;;;;25.80;100.00;99119.63;4821183;29;19994;-76
2022/07/13 05:11:20;;;;;;;;;;;;;;;26.40;100.00;99122.47;4816687;29;19952;-74
2022/07/13 05:13:49;;;;;;;;;;;;;;;26.47;100.00;99127.88;4828769;29;19973;-75
2022/07/13 05:16:16;;;;;;;;;;;;;;;26.33;100.00;99136.38;4829238;29;19985;-74
2022/07/13 05:18:44;;;;;;;;;;;;;;;26.62;100.00;99143.09;4828886;29;19961;-75
2022/07/13 05:21:16;;;;;;;;;;;;;;;27.11;100.00;99139.78;4829635;29;19954;-74
2022/07/13 05:23:44;;;;;;;;;;;;;;;27.41;100.00;99143.56;4829523;29;20261;-75
2022/07/13 05:26:12;;;;;;;;;;;;;;;26.90;100.00;99142.97;4829381;29;20357;-75
2022/07/13 05:28:41;;;;;;;;;;;;;;;26.91;100.00;99145.34;4829747;29;20374;-74
2022/07/13 05:31:11;;;;;;;;;;;;;;;26.58;100.00;99142.44;4828988;29;19953;-74
2022/07/13 05:33:40;;;;;;;;;;;;;;;26.46;100.00;99143.47;4829332;29;19953;-75
2022/07/13 05:36:11;;;;;;;;;;;;;;;26.35;100.00;99142.41;4829571;29;19959;-74
2022/07/13 05:38:39;;;;;;;;;;;;;;;26.47;100.00;99145.06;4811347;29;19948;-74
2022/07/13 05:41:06;;;;;;;;;;;;;;;26.30;100.00;99151.69;4822361;29;19962;-74
2022/07/13 05:43:34;;;;;;;;;;;;;;;26.45;100.00;99152.56;4828416;29;19954;-74
2022/07/13 05:46:04;;;;;;;;;;;;;;;26.40;100.00;99159.78;4827486;29;19968;-74
2022/07/13 05:48:31;;;;;;;;;;;;;;;26.19;100.00;99154.28;4820934;29;19971;-74
2022/07/13 05:50:58;;;;;;;;;;;;;;;26.21;100.00;99154.59;4829487;29;19952;-74
2022/07/13 05:53:42;;;;;;;;;;;;;;;26.00;100.00;99153.50;4829706;29;19954;-74
2022/07/13 05:56:10;;;;;;;;;;;;;;;26.15;100.00;99151.56;4829155;29;19956;-74
2022/07/13 05:58:37;;;;;;;;;;;;;;;25.65;100.00;99150.22;4844202;29;19947;-74
2022/07/13 06:01:04;;;;;;;;;;;;;;;25.92;100.00;99152.25;4845059;29;19961;-74
2022/07/13 06:03:32;;;;;;;;;;;;;;;26.13;100.00;99148.41;4844229;29;19954;-74
2022/07/13 06:06:00;;;;;;;;;;;;;;;26.26;100.00;99151.88;4845300;29;19952;-74
2022/07/13 06:08:27;;;;;;;;;;;;;;;26.07;100.00;99156.81;4845304;29;19976;-74
2022/07/13 06:10:54;;;;;;;;;;;;;;;25.97;100.00;99154.44;4832148;29;20357;-74
2022/07/13 06:13:25;;;;;;;;;;;;;;;25.82;100.00;99157.19;4845171;29;19997;-74
2022/07/13 06:15:52;;;;;;;;;;;;;;;25.53;100.00;99159.00;4845164;29;19949;-74
2022/07/13 06:18:19;;;;;;;;;;;;;;;25.57;100.00;99151.84;4845113;29;19945;-74
2022/07/13 06:20:47;;;;;;;;;;;;;;;25.30;100.00;99161.22;4834948;29;20251;-74
2022/07/13 06:23:16;;;;;;;;;;;;;;;24.96;100.00;99164.34;4827581;29;20311;-74
2022/07/13 06:25:46;;;;;;;;;;;;;;;25.29;100.00;99158.81;4832967;29;19952;-74
2022/07/13 06:28:13;;;;;;;;;;;;;;;24.99;100.00;99163.38;4836705;29;20351;-74
2022/07/13 06:30:41;;;;;;;;;;;;;;;24.70;100.00;99168.69;4844335;29;19949;-74
2022/07/13 06:33:08;;;;;;;;;;;;;;;24.26;100.00;99156.63;4841251;29;19975;-74
2022/07/13 06:35:35;;;;;;;;;;;;;;;24.88;100.00;99163.06;4844845;29;19958;-74
2022/07/13 06:38:03;;;;;;;;;;;;;;;24.61;100.00;99165.81;4844662;29;19951;-74
2022/07/13 06:40:30;;;;;;;;;;;;;;;24.50;100.00;99168.34;4828670;29;19945;-73
2022/07/13 06:42:57;;;;;;;;;;;;;;;24.55;100.00;99165.63;4845226;29;19959;-74
2022/07/13 06:45:25;;;;;;;;;;;;;;;24.72;100.00;99169.03;4844556;29;19958;-74
2022/07/13 06:47:53;;;;;;;;;;;;;;;24.43;100.00;99172.25;4828903;29;20367;-74
2022/07/13 06:50:20;;;;;;;;;;;;;;;24.91;100.00;99173.56;4844159;29;20476;-74
2022/07/13 06:52:48;;;;;;;;;;;;;;;25.39;100.00;99178.38;4844792;29;19951;-74
2022/07/13 06:55:15;;;;;;;;;;;;;;;25.55;100.00;99185.09;4844126;29;19947;-74
2022/07/13 06:57:42;;;;;;;;;;;;;;;25.37;100.00;99186.66;4847799;29;19956;-74
2022/07/13 07:00:10;;;;;;;;;;;;;;;25.31;100.00;99182.81;4848002;29;19982;-74
2022/07/13 07:02:37;;;;;;;;;;;;;;;25.41;100.00;99177.88;4847967;29;20229;-74
2022/07/13 07:05:05;;;;;;;;;;;;;;;25.49;100.00;99178.41;4848328;29;20244;-79
2022/07/13 07:07:32;;;;;;;;;;;;;;;24.98;100.00;99175.31;4848023;29;20345;-74
2022/07/13 07:10:00;;;;;;;;;;;;;;;25.09;100.00;99175.66;4847653;29;19965;-74
2022/07/13 07:12:27;;;;;;;;;;;;;;;24.90;100.00;99174.81;4846847;29;20242;-74
2022/07/13 07:14:54;;;;;;;;;;;;;;;25.11;100.00;99171.06;4848319;29;19949;-74
2022/07/13 07:17:21;;;;;;;;;;;;;;;25.04;100.00;99168.47;4847486;29;19950;-74
2022/07/13 07:19:49;;;;;;;;;;;;;;;25.40;100.00;99177.13;4847710;29;19956;-74
2022/07/13 07:22:16;;;;;;;;;;;;;;;25.10;100.00;99166.59;4847776;29;20245;-74
2022/07/13 07:24:43;;;;;;;;;;;;;;;24.73;100.00;99165.69;4847427;29;19962;-75
2022/07/13 07:27:11;;;;;;;;;;;;;;;25.09;100.00;99161.34;4847785;29;20263;-74
2022/07/13 07:29:39;;;;;;;;;;;;;;;24.80;100.00;99162.56;4847527;29;19970;-74
2022/07/13 07:32:06;;;;;;;;;;;;;;;25.13;100.00;99171.38;4846939;29;20341;-74
2022/07/13 07:34:33;;;;;;;;;;;;;;;24.94;100.00;99161.19;4847732;29;19985;-74
2022/07/13 07:37:01;;;;;;;;;;;;;;;24.78;100.00;99172.88;4847119;29;19952;-74
2022/07/13 07:39:28;;;;;;;;;;;;;;;24.62;100.00;99170.28;4846885;29;19955;-74
2022/07/13 07:41:55;;;;;;;;;;;;;;;24.59;100.00;99166.31;4847472;29;19956;-74
2022/07/13 07:44:23;;;;;;;;;;;;;;;24.63;100.00;99160.41;4846585;29;19958;-74
2022/07/13 07:46:52;;;;;;;;;;;;;;;24.74;100.00;99157.91;4847290;29;19948;-74
2022/07/13 07:49:19;;;;;;;;;;;;;;;24.82;100.00;99152.72;4847447;29;19973;-74
2022/07/13 07:51:47;;;;;;;;;;;;;;;25.09;100.00;99167.09;4847030;29;19947;-74
2022/07/13 07:54:34;;;;;;;;;;;;;;;25.46;100.00;99159.34;4847349;29;19959;-74
2022/07/13 07:57:02;;;;;;;;;;;;;;;25.84;100.00;99162.47;4846201;29;20238;-74
2022/07/13 07:59:29;;;;;;;;;;;;;;;25.66;100.00;99151.81;4831084;29;19950;-74
2022/07/13 08:01:57;;;;;;;;;;;;;;;25.72;100.00;99149.91;4847080;29;19956;-74
2022/07/13 08:04:24;;;;;;;;;;;;;;;25.59;100.00;99148.47;4847654;29;19956;-74
2022/07/13 08:06:51;;;;;;;;;;;;;;;25.71;100.00;99150.38;4846674;29;19955;-74
2022/07/13 08:09:18;;;;;;;;;;;;;;;25.85;100.00;99156.25;4846196;29;19976;-74
2022/07/13 08:11:46;;;;;;;;;;;;;;;25.86;100.00;99145.56;4846630;29;19961;-74
2022/07/13 08:14:13;;;;;;;;;;;;;;;25.90;100.00;99140.47;4847156;29;19977;-74
2022/07/13 08:16:40;;;;;;;;;;;;;;;25.54;100.00;99157.72;4847071;29;19953;-74
2022/07/13 08:19:08;;;;;;;;;;;;;;;25.44;100.00;99140.53;4846907;29;19951;-74
2022/07/13 08:21:55;;;;;;;;;;;;;;;25.70;100.00;99132.38;4846570;29;19951;-74
2022/07/13 08:24:22;;;;;;;;;;;;;;;25.76;100.00;99144.00;4846251;29;19953;-74
2022/07/13 08:26:51;;;;;;;;;;;;;;;25.87;100.00;99138.59;4846703;29;19949;-74
2022/07/13 08:29:18;;;;;;;;;;;;;;;26.00;100.00;99134.22;4846662;29;19972;-74
2022/07/13 08:31:45;;;;;;;;;;;;;;;25.76;100.00;99123.94;4846470;29;19949;-74
2022/07/13 08:39:44;;;;;;;;;;;;;;;25.94;100.00;99126.78;4846584;29;19952;-74
2022/07/13 08:42:14;;;;;;;;;;;;;;;26.21;100.00;99135.31;4846016;29;19948;-73
2022/07/13 08:44:42;;;;;;;;;;;;;;;26.20;100.00;99133.72;4846621;29;19957;-74
2022/07/13 08:47:09;;;;;;;;;;;;;;;26.13;100.00;99131.19;4846552;29;19959;-74
2022/07/13 08:49:36;;;;;;;;;;;;;;;26.42;100.00;99131.41;4846430;29;19974;-74
2022/07/13 08:52:04;;;;;;;;;;;;;;;26.59;100.00;99129.72;4845322;29;19950;-74
2022/07/13 08:54:32;;;;;;;;;;;;;;;26.37;100.00;99134.13;4846343;29;19948;-74
2022/07/13 08:56:59;;;;;;;;;;;;;;;26.60;100.00;99137.06;4845554;29;20337;-74
2022/07/13 08:59:26;;;;;;;;;;;;;;;26.67;100.00;99142.44;4845440;29;19952;-74
2022/07/13 09:01:54;;;;;;;;;;;;;;;26.72;100.00;99138.09;4845772;29;19962;-74
2022/07/13 09:04:22;;;;;;;;;;;;;;;26.70;100.00;99135.69;4846034;29;19958;-74
2022/07/13 09:06:50;;;;;;;;;;;;;;;26.87;100.00;99132.44;4846178;29;20341;-74
2022/07/13 09:09:27;;;;;;;;;;;;;;;26.71;100.00;99136.50;4845458;29;20265;-74
2022/07/13 09:12:15;;;;;;;;;;;;;;;26.68;100.00;99125.97;4845743;29;19955;-74
2022/07/13 09:14:53;;;;;;;;;;;;;;;26.52;100.00;99129.28;4845969;29;19968;-74
2022/07/13 09:17:26;;;;;;;;;;;;;;;26.86;100.00;99131.66;4845171;29;19955;-74
2022/07/13 09:19:53;;;;;;;;;;;;;;;26.98;100.00;99126.94;4845469;29;19953;-74
2022/07/13 09:22:20;;;;;;;;;;;;;;;26.55;100.00;99128.31;4846000;29;19954;-74
2022/07/13 09:24:49;;;;;;;;;;;;;;;26.64;100.00;99129.03;4845972;29;20335;-74
2022/07/13 09:27:17;;;;;;;;;;;;;;;26.88;100.00;99123.34;4846780;29;19953;-74
2022/07/13 09:29:44;;;;;;;;;;;;;;;26.92;100.00;99129.72;4845179;29;19981;-74
2022/07/13 09:32:12;;;;;;;;;;;;;;;27.05;100.00;99130.22;4845889;29;19953;-74
2022/07/13 09:34:57;;;;;;;;;;;;;;;27.10;100.00;99134.50;4845384;29;20327;-74
2022/07/13 09:37:27;;;;;;;;;;;;;;;27.22;100.00;99133.44;4845034;29;20362;-74
2022/07/13 09:39:54;;;;;;;;;;;;;;;27.43;100.00;99131.56;4841362;29;20834;-74
2022/07/13 09:42:26;;;;;;;;;;;;;;;27.45;100.00;99138.41;4844158;29;19955;-75
2022/07/13 09:47:48;;;;;;;;;;;;;;;27.19;100.00;99131.59;4845615;29;19952;-74
2022/07/13 09:50:17;;;;;;;;;;;;;;;27.10;100.00;99137.38;4845410;29;19969;-74
2022/07/13 09:52:46;;;;;;;;;;;;;;;27.32;100.00;99135.75;4845435;29;19958;-74
2022/07/13 09:55:16;;;;;;;;;;;;;;;27.27;100.00;99133.56;4843627;29;20364;-74
2022/07/13 09:57:45;;;;;;;;;;;;;;;27.35;100.00;99134.78;4845073;29;20598;-74
2022/07/13 10:00:17;;;;;;;;;;;;;;;27.52;100.00;99135.16;4844416;29;20366;-74
2022/07/13 10:02:46;;;;;;;;;;;;;;;27.59;100.00;99136.81;4845358;29;19942;-74
2022/07/13 10:05:15;;;;;;;;;;;;;;;27.62;100.00;99139.53;4845516;29;19952;-74
2022/07/13 10:07:43;;;;;;;;;;;;;;;27.65;94.99;99137.75;4845272;29;19952;-74
2022/07/13 10:10:14;;;;;;;;;;;;;;;27.55;97.30;99137.03;4845053;29;20290;-74
2022/07/13 10:12:41;;;;;;;;;;;;;;;27.78;100.00;99133.28;4832799;29;19952;-74
2022/07/13 10:15:10;;;;;;;;;;;;;;;27.93;100.00;99127.53;4844459;29;20009;-74
2022/07/13 10:17:38;;;;;;;;;;;;;;;27.89;97.74;99141.31;4845038;29;19953;-74
2022/07/13 10:20:10;;;;;;;;;;;;;;;27.83;96.58;99138.34;4845290;29;19949;-74
2022/07/13 10:22:38;;;;;;;;;;;;;;;28.00;100.00;99133.72;4844702;29;19950;-74
2022/07/13 10:25:06;;;;;;;;;;;;;;;27.68;91.76;99151.13;4845176;29;19951;-74
2022/07/13 10:27:35;;;;;;;;;;;;;;;27.85;96.27;99137.88;4844443;29;19959;-74
2022/07/13 10:30:06;;;;;;;;;;;;;;;28.04;96.92;99142.16;4844198;29;19951;-74
2022/07/13 10:32:38;;;;;;;;;;;;;;;28.28;99.71;99137.06;4847505;29;20375;-74
2022/07/13 10:35:11;;;;;;;;;;;;;;;28.38;85.45;99141.41;4848066;29;19957;-74
2022/07/13 10:37:58;;;;;;;;;;;;;;;28.49;83.88;99137.91;4848798;29;19952;-74
2022/07/13 10:40:28;;;;;;;;;;;;;;;28.43;83.47;99137.84;4832697;29;20374;-74
2022/07/13 10:43:00;;;;;;;;;;;;;;;28.47;83.65;99134.75;4842758;29;20272;-74
2022/07/13 10:45:33;;;;;;;;;;;;;;;28.55;90.67;99133.03;4848628;29;19949;-74
2022/07/13 10:48:04;;;;;;;;;;;;;;;28.63;83.62;99134.25;4848846;29;19962;-74
2022/07/13 10:50:44;;;;;;;;;;;;;;;28.35;89.45;99135.84;4847882;29;20279;-74
2022/07/13 10:53:12;;;;;;;;;;;;;;;28.37;83.91;99133.28;4832233;29;19955;-74
2022/07/13 10:55:45;;;;;;;;;;;;;;;28.47;84.03;99126.91;4848470;29;20251;-74
2022/07/13 10:58:29;;;;;;;;;;;;;;;28.51;85.74;99126.72;4847992;29;19965;-74
2022/07/13 11:01:01;;;;;;;;;;;;;;;28.64;80.67;99118.56;4838539;29;19948;-74
2022/07/13 11:03:37;;;;;;;;;;;;;;;28.75;88.20;99117.94;4847653;29;19950;-74
2022/07/13 11:06:05;;;;;;;;;;;;;;;28.68;81.20;99116.28;4848448;29;19954;-74
2022/07/13 11:08:33;;;;;;;;;;;;;;;28.86;82.64;99118.06;4847299;29;19952;-74
2022/07/13 11:11:14;;;;;;;;;;;;;;;28.59;78.21;99122.09;4848185;29;19993;-74
2022/07/13 11:13:44;;;;;;;;;;;;;;;28.78;87.79;99111.16;4830788;29;20246;-74
2022/07/13 11:16:13;;;;;;;;;;;;;;;28.51;79.98;99115.97;4848121;29;19952;-74
2022/07/13 11:18:41;;;;;;;;;;;;;;;28.61;74.40;99108.81;4847992;29;19956;-74
2022/07/13 11:21:12;;;;;;;;;;;;;;;28.36;76.37;99115.25;4847040;29;19954;-74
2022/07/13 11:26:28;;;;;;;;;;;;;;;28.66;81.33;99100.78;4847914;29;19951;-74
2022/07/13 11:28:58;;;;;;;;;;;;;;;28.57;73.60;99102.47;4847962;29;19957;-74
2022/07/13 11:31:26;;;;;;;;;;;;;;;28.52;73.94;99111.00;4831335;29;21659;-74
2022/07/13 11:33:53;;;;;;;;;;;;;;;28.53;73.54;99107.66;4847903;29;19955;-74
2022/07/13 11:36:24;;;;;;;;;;;;;;;28.56;73.36;99106.63;4847900;29;20327;-74
2022/07/13 11:38:56;;;;;;;;;;;;;;;28.66;77.39;99095.03;4831550;29;20255;-74
2022/07/13 11:41:24;;;;;;;;;;;;;;;28.74;76.20;99096.97;4847677;29;19958;-74
2022/07/13 11:43:51;;;;;;;;;;;;;;;28.76;71.77;99097.25;4847104;29;20026;-74
2022/07/13 11:46:28;;;;;;;;;;;;;;;28.94;74.99;99101.97;4847599;29;19965;-74
2022/07/13 11:49:02;;;;;;;;;;;;;;;28.95;72.50;99095.72;4835042;29;19959;-74
2022/07/13 11:51:30;;;;;;;;;;;;;;;28.80;71.13;99094.97;4847473;29;20264;-74
2022/07/13 11:54:08;;;;;;;;;;;;;;;28.91;71.68;99091.44;4847467;29;19991;-74
2022/07/13 11:56:44;;;;;;;;;;;;;;;28.69;71.73;99085.38;4846512;29;19954;-74
2022/07/13 11:59:11;;;;;;;;;;;;;;;28.69;77.47;99079.63;4847559;29;19958;-74
2022/07/13 12:01:47;;;;;;;;;;;;;;;28.81;71.00;99078.47;4847168;29;19967;-74
2022/07/13 12:04:20;;;;;;;;;;;;;;;28.67;74.36;99083.00;4846477;29;19965;-74
2022/07/13 12:06:47;;;;;;;;;;;;;;;28.77;72.72;99077.91;4847176;29;19958;-74
2022/07/13 12:09:17;;;;;;;;;;;;;;;28.78;71.99;99076.63;4834277;29;20383;-75
2022/07/13 12:11:45;;;;;;;;;;;;;;;28.88;72.48;99075.97;4846488;29;20256;-75
2022/07/13 12:14:13;;;;;;;;;;;;;;;28.73;69.10;99075.25;4846812;29;20003;-74
2022/07/13 12:16:40;;;;;;;;;;;;;;;28.78;70.42;99070.88;4846123;29;19951;-74
2022/07/13 12:19:10;;;;;;;;;;;;;;;28.95;68.70;99066.91;4830813;29;19982;-74
2022/07/13 12:21:39;;;;;;;;;;;;;;;29.03;65.45;99065.16;4846629;29;19951;-75
2022/07/13 12:24:06;;;;;;;;;;;;;;;29.03;68.22;99068.03;4846592;29;19952;-75
2022/07/13 12:26:33;;;;;;;;;;;;;;;28.91;67.75;99054.81;4846807;29;19956;-74
2022/07/13 12:29:00;;;;;;;;;;;;;;;28.94;65.33;99050.94;4846717;29;19981;-73
2022/07/13 12:31:28;;;;;;;;;;;;;;;28.96;65.43;99054.09;4846551;29;20320;-73
2022/07/13 12:33:55;;;;;;;;;;;;;;;28.98;65.53;99050.69;4846556;29;19968;-73
2022/07/13 12:36:25;;;;;;;;;;;;;;;28.91;70.98;99045.38;4846184;29;19959;-74
2022/07/13 12:38:52;;;;;;;;;;;;;;;28.95;63.60;99043.88;4846703;29;19950;-74
2022/07/13 12:41:27;;;;;;;;;;;;;;;28.96;67.18;99044.66;4846755;29;19959;-74
2022/07/13 12:43:56;;;;;;;;;;;;;;;28.98;67.94;99042.84;4846329;29;19954;-74
2022/07/13 12:46:24;;;;;;;;;;;;;;;28.96;67.20;99039.69;4846298;29;19968;-73
2022/07/13 12:48:59;;;;;;;;;;;;;;;28.83;67.03;99039.25;4846523;29;19962;-73
2022/07/13 12:51:42;;;;;;;;;;;;;;;28.90;62.10;99035.97;4846572;29;19971;-74
2022/07/13 12:54:09;;;;;;;;;;;;;;;29.03;65.00;99024.84;4845268;29;19947;-74
2022/07/13 12:56:48;;;;;;;;;;;;;;;29.04;65.83;99025.63;4846422;29;19983;-74
2022/07/13 12:59:18;;;;;;;;;;;;;;;29.13;61.46;99023.38;4846284;29;19956;-74
2022/07/13 13:01:45;;;;;;;;;;;;;;;29.17;62.57;99017.41;4830236;29;20247;-74
2022/07/13 13:04:13;;;;;;;;;;;;;;;29.46;59.84;99008.59;4845817;29;19959;-74
2022/07/13 13:06:41;;;;;;;;;;;;;;;29.45;60.16;99011.97;4846190;29;19966;-74
2022/07/13 13:09:15;;;;;;;;;;;;;;;29.56;60.68;99014.97;4845578;29;20339;-74
2022/07/13 13:11:44;;;;;;;;;;;;;;;29.38;59.73;99010.31;4845384;29;20349;-75
2022/07/13 13:14:12;;;;;;;;;;;;;;;29.42;61.90;99005.13;4845197;29;19989;-75
2022/07/13 13:16:39;;;;;;;;;;;;;;;29.48;65.28;98996.53;4845984;29;20214;-75
2022/07/13 13:19:07;;;;;;;;;;;;;;;29.44;63.23;98998.88;4845931;29;19953;-75
2022/07/13 13:21:35;;;;;;;;;;;;;;;29.52;57.75;98997.09;4845948;29;19951;-75
2022/07/13 13:24:06;;;;;;;;;;;;;;;29.55;61.11;98994.00;4845618;29;19950;-74
2022/07/13 13:26:37;;;;;;;;;;;;;;;29.51;57.04;98992.66;4845850;29;20105;-74
2022/07/13 13:32:04;;;;;;;;;;;;;;;29.51;57.09;98984.00;4855850;29;19982;-74
2022/07/13 13:34:32;;;;;;;;;;;;;;;29.45;61.33;98992.59;4845346;29;20254;-74
2022/07/13 13:37:00;;;;;;;;;;;;;;;29.53;58.07;98978.50;4845887;29;19952;-74
2022/07/13 13:39:27;;;;;;;;;;;;;;;29.61;60.18;98976.75;4845367;29;19959;-75
2022/07/13 13:41:54;;;;;;;;;;;;;;;29.59;59.23;98974.34;4845661;29;20003;-74
2022/07/13 13:44:21;;;;;;;;;;;;;;;29.57;58.50;98973.28;4845734;29;19959;-75
2022/07/13 13:46:49;;;;;;;;;;;;;;;29.69;56.20;98978.63;4844675;29;19971;-75
2022/07/13 13:49:16;;;;;;;;;;;;;;;29.78;51.99;98972.75;4845480;29;19953;-74
2022/07/13 13:51:43;;;;;;;;;;;;;;;29.78;53.70;98969.84;4845137;29;19976;-74
2022/07/13 13:54:26;;;;;;;;;;;;;;;29.77;57.95;98964.59;4844825;29;19953;-75
2022/07/13 13:56:53;;;;;;;;;;;;;;;29.90;54.77;98970.72;4844616;29;19960;-74
2022/07/13 13:59:21;;;;;;;;;;;;;;;29.75;55.45;98955.63;4845181;29;19944;-74
2022/07/13 14:01:48;;;;;;;;;;;;;;;29.62;52.15;98966.78;4844572;29;20022;-74
2022/07/13 14:04:16;;;;;;;;;;;;;;;29.59;50.80;98959.19;4845150;29;19946;-74
2022/07/13 14:06:47;;;;;;;;;;;;;;;29.49;51.77;98955.66;4844707;29;19956;-74
2022/07/13 14:09:14;;;;;;;;;;;;;;;29.57;55.17;98950.22;4845618;29;19951;-74
2022/07/13 14:11:41;;;;;;;;;;;;;;;29.53;53.66;98950.47;4845038;29;19956;-74
2022/07/13 14:14:09;;;;;;;;;;;;;;;29.59;57.99;98953.41;4844227;29;19976;-74
2022/07/13 14:16:36;;;;;;;;;;;;;;;29.62;53.81;98946.59;4845137;29;19948;-74
2022/07/13 14:19:03;;;;;;;;;;;;;;;29.64;56.24;98944.00;4845042;29;19990;-74
2022/07/13 14:21:31;;;;;;;;;;;;;;;29.65;56.53;98948.47;4844564;29;19956;-75
2022/07/13 14:23:58;;;;;;;;;;;;;;;29.64;56.59;98947.69;4845041;29;20698;-74
2022/07/13 14:26:44;;;;;;;;;;;;;;;29.65;52.38;98936.94;4845037;29;20343;-74
2022/07/13 14:29:18;;;;;;;;;;;;;;;29.66;53.72;98938.53;4845649;29;19953;-74
2022/07/13 14:31:45;;;;;;;;;;;;;;;29.61;54.06;98936.41;4845160;29;19945;-75
2022/07/13 14:34:20;;;;;;;;;;;;;;;29.61;52.23;98933.50;4844835;29;19955;-74
2022/07/13 14:36:47;;;;;;;;;;;;;;;29.50;54.85;98936.28;4844814;29;19950;-74
2022/07/13 14:39:15;;;;;;;;;;;;;;;29.68;53.45;98945.38;4844881;29;19949;-74
2022/07/13 14:41:42;;;;;;;;;;;;;;;29.70;49.97;98939.88;4844651;29;19953;-74
2022/07/13 14:44:09;;;;;;;;;;;;;;;29.71;52.17;98934.91;4828713;29;19956;-74
2022/07/13 14:46:36;;;;;;;;;;;;;;;29.64;51.26;98932.47;4844941;29;20244;-75
2022/07/13 14:49:04;;;;;;;;;;;;;;;29.70;55.91;98930.44;4845070;29;19947;-74
2022/07/13 14:51:45;;;;;;;;;;;;;;;29.70;52.35;98927.53;4844583;29;20353;-74
2022/07/13 14:54:12;;;;;;;;;;;;;;;29.66;52.94;98921.25;4844555;29;20268;-74
2022/07/13 14:56:39;;;;;;;;;;;;;;;29.59;52.26;98913.06;4844705;29;19958;-74
2022/07/13 14:59:08;;;;;;;;;;;;;;;29.58;50.98;98920.91;4844905;29;19948;-74
2022/07/13 15:01:35;;;;;;;;;;;;;;;29.58;55.20;98909.38;4844935;29;20357;-74
2022/07/13 15:04:03;;;;;;;;;;;;;;;29.69;53.42;98918.09;4843917;29;19961;-75
2022/07/13 15:06:30;;;;;;;;;;;;;;;29.59;50.81;98915.94;4844327;29;19953;-74
2022/07/13 15:08:57;;;;;;;;;;;;;;;29.78;48.28;98914.28;4844084;29;19949;-74
2022/07/13 15:11:36;;;;;;;;;;;;;;;29.78;48.73;98908.50;4844086;29;20348;-74
2022/07/13 15:14:05;;;;;;;;;;;;;;;29.81;50.99;98910.34;4843689;29;19972;-74
2022/07/13 15:16:33;;;;;;;;;;;;;;;29.83;51.54;98908.53;4843814;29;19961;-74
2022/07/13 15:19:00;;;;;;;;;;;;;;;29.70;47.98;98905.28;4847495;29;19949;-74
2022/07/13 15:21:27;;;;;;;;;;;;;;;29.64;49.52;98904.44;4847204;29;19950;-74
2022/07/13 15:23:55;;;;;;;;;;;;;;;29.57;49.22;98899.16;4848136;29;20245;-74
2022/07/13 15:26:22;;;;;;;;;;;;;;;29.58;51.80;98892.09;4848149;29;19956;-74
2022/07/13 15:28:50;;;;;;;;;;;;;;;29.52;52.05;98893.34;4847457;29;19950;-74
2022/07/13 15:31:19;;;;;;;;;;;;;;;29.58;52.33;98889.22;4847705;29;19955;-74
2022/07/13 15:33:47;;;;;;;;;;;;;;;29.58;51.82;98892.09;4849982;29;19973;-75
2022/07/13 15:36:15;;;;;;;;;;;;;;;29.46;50.17;98889.63;4846932;29;19955;-75
2022/07/13 15:38:42;;;;;;;;;;;;;;;29.39;53.58;98890.09;4847803;29;19966;-74
2022/07/13 15:41:24;;;;;;;;;;;;;;;29.40;50.55;98883.03;4847864;29;19958;-74
2022/07/13 15:43:55;;;;;;;;;;;;;;;29.34;51.06;98885.88;4835780;29;19954;-75
2022/07/13 15:46:24;;;;;;;;;;;;;;;29.31;51.03;98872.50;4847880;29;19953;-75
2022/07/13 15:48:55;;;;;;;;;;;;;;;29.28;48.57;98879.28;4847557;29;19956;-74
2022/07/13 15:51:22;;;;;;;;;;;;;;;29.33;52.72;98867.00;4847022;29;19958;-75
2022/07/13 15:53:49;;;;;;;;;;;;;;;29.33;49.97;98866.22;4847451;29;19977;-75
2022/07/13 15:56:17;;;;;;;;;;;;;;;29.27;53.27;98864.06;4847462;29;19954;-74
2022/07/13 15:58:44;;;;;;;;;;;;;;;29.35;50.35;98866.47;4846941;29;19954;-74
2022/07/13 16:01:12;;;;;;;;;;;;;;;29.29;50.66;98866.47;4846748;29;19963;-74
2022/07/13 16:03:39;;;;;;;;;;;;;;;29.25;48.63;98871.66;4846769;29;19954;-74
2022/07/13 16:06:06;;;;;;;;;;;;;;;29.21;50.74;98863.25;4845448;29;19948;-74
2022/07/13 16:08:34;;;;;;;;;;;;;;;29.23;50.74;98865.59;4829167;29;19961;-74
2022/07/13 16:11:01;;;;;;;;;;;;;;;29.25;51.05;98854.34;4847029;29;20327;-74
2022/07/13 16:13:28;;;;;;;;;;;;;;;29.27;50.47;98848.91;4830667;29;19970;-74
2022/07/13 16:15:56;;;;;;;;;;;;;;;29.13;50.82;98853.47;4846481;29;20033;-74
2022/07/13 16:18:23;;;;;;;;;;;;;;;29.20;52.08;98846.47;4846472;29;19957;-74
2022/07/13 16:20:50;;;;;;;;;;;;;;;29.13;52.74;98841.13;4830914;29;19947;-74
2022/07/13 16:23:17;;;;;;;;;;;;;;;29.08;54.27;98857.06;4834215;29;19956;-74
2022/07/13 16:25:45;;;;;;;;;;;;;;;29.13;53.43;98844.81;4835792;29;19960;-74
2022/07/13 16:28:13;;;;;;;;;;;;;;;29.09;51.60;98846.34;4838342;29;19957;-74
2022/07/13 16:30:40;;;;;;;;;;;;;;;29.06;52.36;98851.03;4846716;29;20334;-74
2022/07/13 16:33:07;;;;;;;;;;;;;;;28.99;50.66;98847.81;4845425;29;19967;-74
2022/07/13 16:35:34;;;;;;;;;;;;;;;29.05;51.25;98848.69;4846226;29;19961;-74
2022/07/13 16:38:02;;;;;;;;;;;;;;;28.95;53.24;98845.19;4845853;29;19956;-74
2022/07/13 16:40:33;;;;;;;;;;;;;;;28.94;48.87;98852.25;4846805;29;19949;-75
2022/07/13 16:43:00;;;;;;;;;;;;;;;28.89;50.39;98850.09;4846592;29;19945;-74
2022/07/13 16:45:27;;;;;;;;;;;;;;;28.91;50.72;98840.94;4841680;29;20008;-74
2022/07/13 16:47:55;;;;;;;;;;;;;;;28.90;50.11;98839.38;4837168;29;19950;-74
2022/07/13 16:50:22;;;;;;;;;;;;;;;28.90;52.02;98840.19;4844296;29;19948;-74
2022/07/13 16:52:49;;;;;;;;;;;;;;;28.91;51.86;98841.75;4846295;29;19984;-74
2022/07/13 16:55:18;;;;;;;;;;;;;;;28.86;52.13;98836.72;4844593;29;19955;-74
2022/07/13 16:57:46;;;;;;;;;;;;;;;28.84;52.23;98841.41;4838949;29;19954;-74
2022/07/13 17:00:13;;;;;;;;;;;;;;;28.73;51.91;98844.97;4843721;29;20259;-74
2022/07/13 17:02:41;;;;;;;;;;;;;;;28.68;52.20;98834.19;4845742;29;19959;-74
2022/07/13 17:05:08;;;;;;;;;;;;;;;28.68;53.13;98836.28;4845141;29;19962;-74
2022/07/13 17:07:36;;;;;;;;;;;;;;;28.61;53.66;98828.91;4845690;29;20370;-74
2022/07/13 17:10:07;;;;;;;;;;;;;;;28.59;52.36;98832.25;4846028;29;19956;-74
2022/07/13 17:12:35;;;;;;;;;;;;;;;28.58;52.06;98833.56;4844913;29;20254;-74
2022/07/13 17:15:06;;;;;;;;;;;;;;;28.57;54.10;98822.53;4845120;29;19968;-74
2022/07/13 17:17:33;;;;;;;;;;;;;;;28.51;56.42;98821.69;4844679;29;19954;-74
2022/07/13 17:20:00;;;;;;;;;;;;;;;28.47;55.68;98830.53;4845639;29;19958;-74